sensor_id;sensor_type;location;lat;lon;timestamp;temperature;humidity
44117;DHT22;29781;49.480;8.512;2023-02-19T00:01:14;11.40;99.90
44117;DHT22;29781;49.480;8.512;2023-02-19T00:03:41;11.30;99.90
44117;DHT22;29781;49.480;8.512;2023-02-19T00:06:07;11.20;99.90
44117;DHT22;29781;49.480;8.512;2023-02-19T00:08:33;11.20;99.90
44117;DHT22;29781;49.480;8.512;2023-02-19T00:11:03;11.30;99.90
44117;DHT22;29781;49.480;8.512;2023-02-19T00:13:29;11.20;99.90
44117;DHT22;29781;49.480;8.512;2023-02-19T00:15:55;11.30;99.90
44117;DHT22;29781;49.480;8.512;2023-02-19T00:18:21;11.40;99.90
44117;DHT22;29781;49.480;8.512;2023-02-19T00:20:46;11.20;99.90
44117;DHT22;29781;49.480;8.512;2023-02-19T00:23:11;11.30;99.90
44117;DHT22;29781;49.480;8.512;2023-02-19T00:25:37;11.20;99.90
44117;DHT22;29781;49.480;8.512;2023-02-19T00:28:02;11.10;99.90
44117;DHT22;29781;49.480;8.512;2023-02-19T00:30:28;11.20;99.90
44117;DHT22;29781;49.480;8.512;2023-02-19T00:32:54;11.10;99.90
44117;DHT22;29781;49.480;8.512;2023-02-19T00:35:19;11.20;99.90
44117;DHT22;29781;49.480;8.512;2023-02-19T00:37:45;11.10;99.90
44117;DHT22;29781;49.480;8.512;2023-02-19T00:40:10;11.10;99.90
44117;DHT22;29781;49.480;8.512;2023-02-19T00:42:36;11.20;99.90
44117;DHT22;29781;49.480;8.512;2023-02-19T00:45:01;11.20;99.90
44117;DHT22;29781;49.480;8.512;2023-02-19T00:47:27;11.20;99.90
44117;DHT22;29781;49.480;8.512;2023-02-19T00:49:52;11.10;99.90
44117;DHT22;29781;49.480;8.512;2023-02-19T00:52:18;11.20;99.90
44117;DHT22;29781;49.480;8.512;2023-02-19T00:54:43;11.20;99.90
44117;DHT22;29781;49.480;8.512;2023-02-19T00:57:08;11.20;99.90
44117;DHT22;29781;49.480;8.512;2023-02-19T00:59:34;11.40;99.90
44117;DHT22;29781;49.480;8.512;2023-02-19T01:02:01;11.30;99.90
44117;DHT22;29781;49.480;8.512;2023-02-19T01:04:26;11.30;99.90
44117;DHT22;29781;49.480;8.512;2023-02-19T01:06:52;11.20;99.90
44117;DHT22;29781;49.480;8.512;2023-02-19T01:09:17;11.20;99.90
44117;DHT22;29781;49.480;8.512;2023-02-19T01:11:43;11.20;99.90
44117;DHT22;29781;49.480;8.512;2023-02-19T01:14:08;11.30;99.90
44117;DHT22;29781;49.480;8.512;2023-02-19T01:16:34;11.20;99.90
44117;DHT22;29781;49.480;8.512;2023-02-19T01:18:59;11.10;99.90
44117;DHT22;29781;49.480;8.512;2023-02-19T01:21:25;11.10;99.90
44117;DHT22;29781;49.480;8.512;2023-02-19T01:23:51;11.00;99.90
44117;DHT22;29781;49.480;8.512;2023-02-19T01:26:18;10.90;99.90
44117;DHT22;29781;49.480;8.512;2023-02-19T01:28:44;11.00;99.90
44117;DHT22;29781;49.480;8.512;2023-02-19T01:31:11;11.10;99.90
44117;DHT22;29781;49.480;8.512;2023-02-19T01:33:37;11.10;99.90
44117;DHT22;29781;49.480;8.512;2023-02-19T01:36:03;11.10;99.90
44117;DHT22;29781;49.480;8.512;2023-02-19T01:38:28;10.90;99.90
44117;DHT22;29781;49.480;8.512;2023-02-19T01:40:54;10.80;99.90
44117;DHT22;29781;49.480;8.512;2023-02-19T01:43:20;10.70;99.90
44117;DHT22;29781;49.480;8.512;2023-02-19T01:45:46;10.70;99.90
44117;DHT22;29781;49.480;8.512;2023-02-19T01:48:13;10.70;99.90
44117;DHT22;29781;49.480;8.512;2023-02-19T01:50:43;10.60;99.90
44117;DHT22;29781;49.480;8.512;2023-02-19T01:53:11;10.70;99.90
44117;DHT22;29781;49.480;8.512;2023-02-19T01:55:36;10.80;99.90
44117;DHT22;29781;49.480;8.512;2023-02-19T01:58:03;10.80;99.90
44117;DHT22;29781;49.480;8.512;2023-02-19T02:00:29;10.80;99.90
44117;DHT22;29781;49.480;8.512;2023-02-19T02:02:55;10.70;99.90
44117;DHT22;29781;49.480;8.512;2023-02-19T02:07:50;10.50;99.90
44117;DHT22;29781;49.480;8.512;2023-02-19T02:10:34;10.40;99.90
44117;DHT22;29781;49.480;8.512;2023-02-19T02:13:00;10.60;99.90
44117;DHT22;29781;49.480;8.512;2023-02-19T02:15:27;10.60;99.90
44117;DHT22;29781;49.480;8.512;2023-02-19T02:20:39;10.60;99.90
44117;DHT22;29781;49.480;8.512;2023-02-19T02:23:16;10.40;99.90
44117;DHT22;29781;49.480;8.512;2023-02-19T02:28:40;10.40;99.90
44117;DHT22;29781;49.480;8.512;2023-02-19T02:31:15;10.30;99.90
44117;DHT22;29781;49.480;8.512;2023-02-19T02:33:43;10.40;99.90
44117;DHT22;29781;49.480;8.512;2023-02-19T02:38:38;10.60;99.90
44117;DHT22;29781;49.480;8.512;2023-02-19T02:41:04;10.70;99.90
44117;DHT22;29781;49.480;8.512;2023-02-19T02:43:30;10.70;99.90
44117;DHT22;29781;49.480;8.512;2023-02-19T02:45:55;10.60;99.90
44117;DHT22;29781;49.480;8.512;2023-02-19T02:56:26;10.70;99.90
44117;DHT22;29781;49.480;8.512;2023-02-19T02:58:53;10.70;99.90
44117;DHT22;29781;49.480;8.512;2023-02-19T03:01:29;10.80;99.90
44117;DHT22;29781;49.480;8.512;2023-02-19T03:04:19;10.50;99.90
44117;DHT22;29781;49.480;8.512;2023-02-19T03:06:46;10.60;99.90
44117;DHT22;29781;49.480;8.512;2023-02-19T03:11:38;10.50;99.90
44117;DHT22;29781;49.480;8.512;2023-02-19T03:14:25;10.50;99.90
44117;DHT22;29781;49.480;8.512;2023-02-19T03:17:14;10.60;99.90
44117;DHT22;29781;49.480;8.512;2023-02-19T03:20:00;10.50;99.90
44117;DHT22;29781;49.480;8.512;2023-02-19T03:22:30;10.50;99.90
44117;DHT22;29781;49.480;8.512;2023-02-19T03:25:04;10.60;99.90
44117;DHT22;29781;49.480;8.512;2023-02-19T03:27:49;10.60;99.90
44117;DHT22;29781;49.480;8.512;2023-02-19T03:30:17;10.40;99.90
44117;DHT22;29781;49.480;8.512;2023-02-19T03:33:03;10.40;99.90
44117;DHT22;29781;49.480;8.512;2023-02-19T03:35:34;10.30;99.90
44117;DHT22;29781;49.480;8.512;2023-02-19T03:38:06;10.40;99.90
44117;DHT22;29781;49.480;8.512;2023-02-19T03:40:33;10.40;99.90
44117;DHT22;29781;49.480;8.512;2023-02-19T03:43:07;10.30;99.90
44117;DHT22;29781;49.480;8.512;2023-02-19T03:48:21;10.30;99.90
44117;DHT22;29781;49.480;8.512;2023-02-19T03:56:03;10.40;99.90
44117;DHT22;29781;49.480;8.512;2023-02-19T03:58:35;10.40;99.90
44117;DHT22;29781;49.480;8.512;2023-02-19T04:01:09;10.40;99.90
44117;DHT22;29781;49.480;8.512;2023-02-19T04:04:20;10.30;99.90
44117;DHT22;29781;49.480;8.512;2023-02-19T04:06:27;10.40;99.90
44117;DHT22;29781;49.480;8.512;2023-02-19T04:08:54;10.40;99.90
44117;DHT22;29781;49.480;8.512;2023-02-19T04:11:20;10.40;99.90
44117;DHT22;29781;49.480;8.512;2023-02-19T04:14:00;10.40;99.90
44117;DHT22;29781;49.480;8.512;2023-02-19T04:16:27;10.40;99.90
44117;DHT22;29781;49.480;8.512;2023-02-19T04:18:55;10.50;99.90
44117;DHT22;29781;49.480;8.512;2023-02-19T04:21:22;10.50;99.90
44117;DHT22;29781;49.480;8.512;2023-02-19T04:23:48;10.50;99.90
44117;DHT22;29781;49.480;8.512;2023-02-19T04:26:14;10.50;99.90
44117;DHT22;29781;49.480;8.512;2023-02-19T04:28:39;10.50;99.90
44117;DHT22;29781;49.480;8.512;2023-02-19T04:31:07;10.40;99.90
44117;DHT22;29781;49.480;8.512;2023-02-19T04:33:32;10.50;99.90
44117;DHT22;29781;49.480;8.512;2023-02-19T04:35:58;10.40;99.90
44117;DHT22;29781;49.480;8.512;2023-02-19T04:38:23;10.50;99.90
44117;DHT22;29781;49.480;8.512;2023-02-19T04:40:49;10.50;99.90
44117;DHT22;29781;49.480;8.512;2023-02-19T04:43:16;10.50;99.90
44117;DHT22;29781;49.480;8.512;2023-02-19T04:45:41;10.50;99.90
44117;DHT22;29781;49.480;8.512;2023-02-19T04:48:07;10.40;99.90
44117;DHT22;29781;49.480;8.512;2023-02-19T04:50:32;10.40;99.90
44117;DHT22;29781;49.480;8.512;2023-02-19T04:52:58;10.40;99.90
44117;DHT22;29781;49.480;8.512;2023-02-19T04:55:23;10.40;99.90
44117;DHT22;29781;49.480;8.512;2023-02-19T04:57:49;10.40;99.90
44117;DHT22;29781;49.480;8.512;2023-02-19T05:00:14;10.40;99.90
44117;DHT22;29781;49.480;8.512;2023-02-19T05:02:40;10.30;99.90
44117;DHT22;29781;49.480;8.512;2023-02-19T05:05:05;10.30;99.90
44117;DHT22;29781;49.480;8.512;2023-02-19T05:07:31;10.30;99.90
44117;DHT22;29781;49.480;8.512;2023-02-19T05:09:56;10.30;99.90
44117;DHT22;29781;49.480;8.512;2023-02-19T05:12:24;10.20;99.90
44117;DHT22;29781;49.480;8.512;2023-02-19T05:14:49;10.30;99.90
44117;DHT22;29781;49.480;8.512;2023-02-19T05:17:15;10.20;99.90
44117;DHT22;29781;49.480;8.512;2023-02-19T05:19:40;10.30;99.90
44117;DHT22;29781;49.480;8.512;2023-02-19T05:22:06;10.30;99.90
44117;DHT22;29781;49.480;8.512;2023-02-19T05:24:31;10.20;99.90
44117;DHT22;29781;49.480;8.512;2023-02-19T05:26:56;10.20;99.90
44117;DHT22;29781;49.480;8.512;2023-02-19T05:29:22;10.30;99.90
44117;DHT22;29781;49.480;8.512;2023-02-19T05:31:47;10.30;99.90
44117;DHT22;29781;49.480;8.512;2023-02-19T05:34:13;10.30;99.90
44117;DHT22;29781;49.480;8.512;2023-02-19T05:36:39;10.20;99.90
44117;DHT22;29781;49.480;8.512;2023-02-19T05:39:04;10.20;99.90
44117;DHT22;29781;49.480;8.512;2023-02-19T05:41:32;10.30;99.90
44117;DHT22;29781;49.480;8.512;2023-02-19T05:43:57;10.30;99.90
44117;DHT22;29781;49.480;8.512;2023-02-19T05:46:23;10.40;99.90
44117;DHT22;29781;49.480;8.512;2023-02-19T05:48:50;10.20;99.90
44117;DHT22;29781;49.480;8.512;2023-02-19T05:51:16;10.20;99.90
44117;DHT22;29781;49.480;8.512;2023-02-19T05:53:42;10.20;99.90
44117;DHT22;29781;49.480;8.512;2023-02-19T05:58:53;10.20;99.90
44117;DHT22;29781;49.480;8.512;2023-02-19T06:01:19;10.20;99.90
44117;DHT22;29781;49.480;8.512;2023-02-19T06:03:45;10.20;99.90
44117;DHT22;29781;49.480;8.512;2023-02-19T06:06:14;10.10;99.90
44117;DHT22;29781;49.480;8.512;2023-02-19T06:08:40;10.00;99.90
44117;DHT22;29781;49.480;8.512;2023-02-19T06:11:05;10.00;99.90
44117;DHT22;29781;49.480;8.512;2023-02-19T06:13:31;10.00;99.90
44117;DHT22;29781;49.480;8.512;2023-02-19T06:15:56;10.00;99.90
44117;DHT22;29781;49.480;8.512;2023-02-19T06:18:22;10.00;99.90
44117;DHT22;29781;49.480;8.512;2023-02-19T06:20:47;10.00;99.90
44117;DHT22;29781;49.480;8.512;2023-02-19T06:23:13;10.00;99.90
44117;DHT22;29781;49.480;8.512;2023-02-19T06:25:38;10.00;99.90
44117;DHT22;29781;49.480;8.512;2023-02-19T06:28:03;10.00;99.90
44117;DHT22;29781;49.480;8.512;2023-02-19T06:30:29;10.00;99.90
44117;DHT22;29781;49.480;8.512;2023-02-19T06:32:54;10.00;99.90
44117;DHT22;29781;49.480;8.512;2023-02-19T06:35:20;10.10;99.90
44117;DHT22;29781;49.480;8.512;2023-02-19T06:37:46;10.10;99.90
44117;DHT22;29781;49.480;8.512;2023-02-19T06:40:12;10.20;99.90
44117;DHT22;29781;49.480;8.512;2023-02-19T06:42:37;10.10;99.90
44117;DHT22;29781;49.480;8.512;2023-02-19T06:45:02;10.10;99.90
44117;DHT22;29781;49.480;8.512;2023-02-19T06:47:31;10.10;99.90
44117;DHT22;29781;49.480;8.512;2023-02-19T06:49:57;10.10;99.90
44117;DHT22;29781;49.480;8.512;2023-02-19T06:52:23;10.10;99.90
44117;DHT22;29781;49.480;8.512;2023-02-19T06:54:48;10.20;99.90
44117;DHT22;29781;49.480;8.512;2023-02-19T06:57:14;10.20;99.90
44117;DHT22;29781;49.480;8.512;2023-02-19T06:59:39;10.30;99.90
44117;DHT22;29781;49.480;8.512;2023-02-19T07:02:05;10.20;99.90
44117;DHT22;29781;49.480;8.512;2023-02-19T07:04:30;10.30;99.90
44117;DHT22;29781;49.480;8.512;2023-02-19T07:06:56;10.30;99.90
44117;DHT22;29781;49.480;8.512;2023-02-19T07:09:21;10.40;99.90
44117;DHT22;29781;49.480;8.512;2023-02-19T07:11:49;10.40;99.90
44117;DHT22;29781;49.480;8.512;2023-02-19T07:14:15;10.40;99.90
44117;DHT22;29781;49.480;8.512;2023-02-19T07:16:41;10.40;99.90
44117;DHT22;29781;49.480;8.512;2023-02-19T07:19:07;10.40;99.90
44117;DHT22;29781;49.480;8.512;2023-02-19T07:21:33;10.40;99.90
44117;DHT22;29781;49.480;8.512;2023-02-19T07:24:02;10.40;99.90
44117;DHT22;29781;49.480;8.512;2023-02-19T07:26:28;10.40;99.90
44117;DHT22;29781;49.480;8.512;2023-02-19T07:28:54;10.50;99.90
44117;DHT22;29781;49.480;8.512;2023-02-19T07:31:22;10.50;99.90
44117;DHT22;29781;49.480;8.512;2023-02-19T07:33:48;10.50;99.90
44117;DHT22;29781;49.480;8.512;2023-02-19T07:36:13;10.40;99.90
44117;DHT22;29781;49.480;8.512;2023-02-19T07:38:39;10.40;99.90
44117;DHT22;29781;49.480;8.512;2023-02-19T07:41:05;10.40;99.90
44117;DHT22;29781;49.480;8.512;2023-02-19T07:43:32;10.40;99.90
44117;DHT22;29781;49.480;8.512;2023-02-19T07:45:57;10.50;99.90
44117;DHT22;29781;49.480;8.512;2023-02-19T07:48:23;10.50;99.90
44117;DHT22;29781;49.480;8.512;2023-02-19T07:50:55;10.60;99.90
44117;DHT22;29781;49.480;8.512;2023-02-19T07:53:21;10.60;99.90
44117;DHT22;29781;49.480;8.512;2023-02-19T07:55:47;10.70;99.90
44117;DHT22;29781;49.480;8.512;2023-02-19T07:58:13;10.80;99.90
44117;DHT22;29781;49.480;8.512;2023-02-19T08:00:38;10.60;99.90
44117;DHT22;29781;49.480;8.512;2023-02-19T08:03:04;10.70;99.90
44117;DHT22;29781;49.480;8.512;2023-02-19T08:05:30;10.70;99.90
44117;DHT22;29781;49.480;8.512;2023-02-19T08:07:56;10.70;99.90
44117;DHT22;29781;49.480;8.512;2023-02-19T08:10:22;10.70;99.90
44117;DHT22;29781;49.480;8.512;2023-02-19T08:13:08;10.70;99.90
44117;DHT22;29781;49.480;8.512;2023-02-19T08:15:44;10.70;99.90
44117;DHT22;29781;49.480;8.512;2023-02-19T08:18:10;10.90;99.90
44117;DHT22;29781;49.480;8.512;2023-02-19T08:20:35;11.00;99.90
44117;DHT22;29781;49.480;8.512;2023-02-19T08:23:01;10.90;99.90
44117;DHT22;29781;49.480;8.512;2023-02-19T08:25:27;11.00;99.90
44117;DHT22;29781;49.480;8.512;2023-02-19T08:27:52;11.00;99.90
44117;DHT22;29781;49.480;8.512;2023-02-19T08:30:19;11.10;99.90
44117;DHT22;29781;49.480;8.512;2023-02-19T08:32:45;11.10;99.90
44117;DHT22;29781;49.480;8.512;2023-02-19T08:35:10;11.10;99.90
44117;DHT22;29781;49.480;8.512;2023-02-19T08:37:36;11.00;99.90
44117;DHT22;29781;49.480;8.512;2023-02-19T08:40:01;11.00;99.90
44117;DHT22;29781;49.480;8.512;2023-02-19T08:42:27;10.90;99.90
44117;DHT22;29781;49.480;8.512;2023-02-19T08:44:52;11.00;99.90
44117;DHT22;29781;49.480;8.512;2023-02-19T08:47:18;11.00;99.90
44117;DHT22;29781;49.480;8.512;2023-02-19T08:49:43;10.90;99.90
44117;DHT22;29781;49.480;8.512;2023-02-19T08:52:09;11.00;99.90
44117;DHT22;29781;49.480;8.512;2023-02-19T08:54:34;11.00;99.90
44117;DHT22;29781;49.480;8.512;2023-02-19T08:57:00;11.10;99.90
44117;DHT22;29781;49.480;8.512;2023-02-19T08:59:27;11.20;99.90
44117;DHT22;29781;49.480;8.512;2023-02-19T09:01:52;11.20;99.90
44117;DHT22;29781;49.480;8.512;2023-02-19T09:04:18;11.30;99.90
44117;DHT22;29781;49.480;8.512;2023-02-19T09:06:43;11.20;99.90
44117;DHT22;29781;49.480;8.512;2023-02-19T09:09:08;11.30;99.90
44117;DHT22;29781;49.480;8.512;2023-02-19T09:11:34;11.40;99.90
44117;DHT22;29781;49.480;8.512;2023-02-19T09:13:59;11.50;99.90
44117;DHT22;29781;49.480;8.512;2023-02-19T09:16:26;11.60;99.90
44117;DHT22;29781;49.480;8.512;2023-02-19T09:18:51;11.50;99.90
44117;DHT22;29781;49.480;8.512;2023-02-19T09:21:17;11.50;99.90
44117;DHT22;29781;49.480;8.512;2023-02-19T09:23:42;11.40;99.90
44117;DHT22;29781;49.480;8.512;2023-02-19T09:26:08;11.40;99.90
44117;DHT22;29781;49.480;8.512;2023-02-19T09:28:35;11.50;99.90
44117;DHT22;29781;49.480;8.512;2023-02-19T09:31:04;11.50;99.90
44117;DHT22;29781;49.480;8.512;2023-02-19T09:33:30;11.60;99.90
44117;DHT22;29781;49.480;8.512;2023-02-19T09:35:57;11.50;99.90
44117;DHT22;29781;49.480;8.512;2023-02-19T09:38:23;11.50;99.90
44117;DHT22;29781;49.480;8.512;2023-02-19T09:40:48;11.60;99.90
44117;DHT22;29781;49.480;8.512;2023-02-19T09:43:15;11.50;99.90
44117;DHT22;29781;49.480;8.512;2023-02-19T09:45:41;11.60;99.90
44117;DHT22;29781;49.480;8.512;2023-02-19T09:48:07;11.50;99.90
44117;DHT22;29781;49.480;8.512;2023-02-19T09:50:42;11.60;99.90
44117;DHT22;29781;49.480;8.512;2023-02-19T09:53:28;11.40;99.90
44117;DHT22;29781;49.480;8.512;2023-02-19T09:55:58;11.50;99.90
44117;DHT22;29781;49.480;8.512;2023-02-19T09:58:24;11.50;99.90
44117;DHT22;29781;49.480;8.512;2023-02-19T10:00:52;11.70;99.90
44117;DHT22;29781;49.480;8.512;2023-02-19T10:03:28;11.60;99.90
44117;DHT22;29781;49.480;8.512;2023-02-19T10:05:58;11.70;99.90
44117;DHT22;29781;49.480;8.512;2023-02-19T10:08:26;11.80;99.90
44117;DHT22;29781;49.480;8.512;2023-02-19T10:10:51;11.90;99.90
44117;DHT22;29781;49.480;8.512;2023-02-19T10:15:49;11.90;99.90
44117;DHT22;29781;49.480;8.512;2023-02-19T10:18:16;11.90;99.90
44117;DHT22;29781;49.480;8.512;2023-02-19T10:20:41;11.90;99.90
44117;DHT22;29781;49.480;8.512;2023-02-19T10:23:09;12.00;99.90
44117;DHT22;29781;49.480;8.512;2023-02-19T10:25:35;11.90;99.90
44117;DHT22;29781;49.480;8.512;2023-02-19T10:28:01;11.90;99.90
44117;DHT22;29781;49.480;8.512;2023-02-19T10:30:28;12.00;99.90
44117;DHT22;29781;49.480;8.512;2023-02-19T10:33:01;12.20;99.90
44117;DHT22;29781;49.480;8.512;2023-02-19T10:35:27;12.40;99.90
44117;DHT22;29781;49.480;8.512;2023-02-19T10:37:53;12.50;99.90
44117;DHT22;29781;49.480;8.512;2023-02-19T10:40:20;12.50;99.90
44117;DHT22;29781;49.480;8.512;2023-02-19T10:42:50;12.50;99.90
44117;DHT22;29781;49.480;8.512;2023-02-19T10:45:23;12.40;99.90
44117;DHT22;29781;49.480;8.512;2023-02-19T10:47:49;12.40;99.90
44117;DHT22;29781;49.480;8.512;2023-02-19T10:50:19;12.70;99.90
44117;DHT22;29781;49.480;8.512;2023-02-19T10:52:45;12.70;99.90
44117;DHT22;29781;49.480;8.512;2023-02-19T10:55:36;14.40;99.90
44117;DHT22;29781;49.480;8.512;2023-02-19T10:58:15;15.00;99.90
44117;DHT22;29781;49.480;8.512;2023-02-19T11:00:45;15.40;99.90
44117;DHT22;29781;49.480;8.512;2023-02-19T11:03:18;15.60;99.90
44117;DHT22;29781;49.480;8.512;2023-02-19T11:05:58;15.50;99.90
44117;DHT22;29781;49.480;8.512;2023-02-19T11:08:24;14.90;99.90
44117;DHT22;29781;49.480;8.512;2023-02-19T11:10:50;14.90;99.90
44117;DHT22;29781;49.480;8.512;2023-02-19T11:13:18;14.80;99.90
44117;DHT22;29781;49.480;8.512;2023-02-19T11:15:49;14.60;99.90
44117;DHT22;29781;49.480;8.512;2023-02-19T11:18:24;14.40;99.90
44117;DHT22;29781;49.480;8.512;2023-02-19T11:20:50;13.90;99.90
44117;DHT22;29781;49.480;8.512;2023-02-19T11:23:20;13.70;99.90
44117;DHT22;29781;49.480;8.512;2023-02-19T11:25:47;13.50;99.90
44117;DHT22;29781;49.480;8.512;2023-02-19T11:28:22;13.40;99.90
44117;DHT22;29781;49.480;8.512;2023-02-19T11:30:49;13.30;99.90
44117;DHT22;29781;49.480;8.512;2023-02-19T11:35:40;13.10;99.90
44117;DHT22;29781;49.480;8.512;2023-02-19T11:38:13;12.90;99.90
44117;DHT22;29781;49.480;8.512;2023-02-19T11:45:57;13.10;99.90
44117;DHT22;29781;49.480;8.512;2023-02-19T11:48:31;13.00;99.90
44117;DHT22;29781;49.480;8.512;2023-02-19T11:53:26;13.30;99.90
44117;DHT22;29781;49.480;8.512;2023-02-19T12:06:05;13.30;99.90
44117;DHT22;29781;49.480;8.512;2023-02-19T12:11:24;13.30;99.90
44117;DHT22;29781;49.480;8.512;2023-02-19T12:29:23;13.10;99.90
44117;DHT22;29781;49.480;8.512;2023-02-19T12:37:08;13.10;99.90
44117;DHT22;29781;49.480;8.512;2023-02-19T12:39:41;12.90;99.90
44117;DHT22;29781;49.480;8.512;2023-02-19T12:44:54;12.90;99.90
44117;DHT22;29781;49.480;8.512;2023-02-19T12:47:27;12.80;99.90
44117;DHT22;29781;49.480;8.512;2023-02-19T12:49:59;12.80;99.90
44117;DHT22;29781;49.480;8.512;2023-02-19T12:52:25;13.10;99.90
44117;DHT22;29781;49.480;8.512;2023-02-19T12:54:52;13.00;99.90
44117;DHT22;29781;49.480;8.512;2023-02-19T12:57:23;13.10;99.90
44117;DHT22;29781;49.480;8.512;2023-02-19T13:00:05;13.20;99.90
44117;DHT22;29781;49.480;8.512;2023-02-19T13:10:24;13.30;99.90
44117;DHT22;29781;49.480;8.512;2023-02-19T13:12:51;13.30;99.90
44117;DHT22;29781;49.480;8.512;2023-02-19T13:15:32;13.20;99.90
44117;DHT22;29781;49.480;8.512;2023-02-19T13:17:58;13.30;99.90
44117;DHT22;29781;49.480;8.512;2023-02-19T13:25:58;13.20;99.90
44117;DHT22;29781;49.480;8.512;2023-02-19T13:31:20;13.30;99.90
44117;DHT22;29781;49.480;8.512;2023-02-19T13:33:59;13.40;99.90
44117;DHT22;29781;49.480;8.512;2023-02-19T13:36:27;13.30;99.90
44117;DHT22;29781;49.480;8.512;2023-02-19T13:38:53;13.30;99.90
44117;DHT22;29781;49.480;8.512;2023-02-19T13:41:26;13.00;99.90
44117;DHT22;29781;49.480;8.512;2023-02-19T13:43:56;13.10;99.90
44117;DHT22;29781;49.480;8.512;2023-02-19T13:46:22;13.10;99.90
44117;DHT22;29781;49.480;8.512;2023-02-19T13:48:48;13.20;99.90
44117;DHT22;29781;49.480;8.512;2023-02-19T13:53:59;13.20;99.90
44117;DHT22;29781;49.480;8.512;2023-02-19T14:04:07;13.10;99.90
44117;DHT22;29781;49.480;8.512;2023-02-19T14:07:18;13.20;99.90
44117;DHT22;29781;49.480;8.512;2023-02-19T14:14:35;12.90;99.90
44117;DHT22;29781;49.480;8.512;2023-02-19T14:24:51;13.00;99.90
44117;DHT22;29781;49.480;8.512;2023-02-19T14:27:18;13.00;99.90
44117;DHT22;29781;49.480;8.512;2023-02-19T14:29:43;12.90;99.90
44117;DHT22;29781;49.480;8.512;2023-02-19T14:32:11;12.90;99.90
44117;DHT22;29781;49.480;8.512;2023-02-19T14:34:42;12.90;99.90
44117;DHT22;29781;49.480;8.512;2023-02-19T14:37:12;12.90;99.90
44117;DHT22;29781;49.480;8.512;2023-02-19T14:39:40;12.80;99.90
44117;DHT22;29781;49.480;8.512;2023-02-19T14:42:13;12.80;99.90
44117;DHT22;29781;49.480;8.512;2023-02-19T14:44:46;12.90;99.90
44117;DHT22;29781;49.480;8.512;2023-02-19T14:47:13;12.90;99.90
44117;DHT22;29781;49.480;8.512;2023-02-19T14:49:45;12.70;99.90
44117;DHT22;29781;49.480;8.512;2023-02-19T14:52:16;12.70;99.90
44117;DHT22;29781;49.480;8.512;2023-02-19T14:54:47;12.80;99.90
44117;DHT22;29781;49.480;8.512;2023-02-19T14:57:16;13.00;99.90
44117;DHT22;29781;49.480;8.512;2023-02-19T14:59:50;13.10;99.90
44117;DHT22;29781;49.480;8.512;2023-02-19T15:02:16;13.00;99.90
44117;DHT22;29781;49.480;8.512;2023-02-19T15:04:42;12.90;99.90
44117;DHT22;29781;49.480;8.512;2023-02-19T15:07:08;12.90;99.90
44117;DHT22;29781;49.480;8.512;2023-02-19T15:09:36;13.10;99.90
44117;DHT22;29781;49.480;8.512;2023-02-19T15:12:02;13.10;99.90
44117;DHT22;29781;49.480;8.512;2023-02-19T15:14:28;13.10;99.90
44117;DHT22;29781;49.480;8.512;2023-02-19T15:16:56;13.10;99.90
44117;DHT22;29781;49.480;8.512;2023-02-19T15:19:22;13.10;99.90
44117;DHT22;29781;49.480;8.512;2023-02-19T15:21:47;13.10;99.90
44117;DHT22;29781;49.480;8.512;2023-02-19T15:24:14;13.20;99.90
44117;DHT22;29781;49.480;8.512;2023-02-19T15:26:41;13.10;99.90
44117;DHT22;29781;49.480;8.512;2023-02-19T15:29:08;13.00;99.90
44117;DHT22;29781;49.480;8.512;2023-02-19T15:31:35;12.90;99.90
44117;DHT22;29781;49.480;8.512;2023-02-19T15:34:00;12.80;99.90
44117;DHT22;29781;49.480;8.512;2023-02-19T15:36:26;12.80;99.90
44117;DHT22;29781;49.480;8.512;2023-02-19T15:38:53;13.00;99.90
44117;DHT22;29781;49.480;8.512;2023-02-19T15:41:20;13.10;99.90
44117;DHT22;29781;49.480;8.512;2023-02-19T15:43:52;13.10;99.90
44117;DHT22;29781;49.480;8.512;2023-02-19T15:46:21;12.90;99.90
44117;DHT22;29781;49.480;8.512;2023-02-19T15:49:01;12.80;99.90
44117;DHT22;29781;49.480;8.512;2023-02-19T15:51:39;12.70;99.90
44117;DHT22;29781;49.480;8.512;2023-02-19T15:54:21;12.60;99.90
44117;DHT22;29781;49.480;8.512;2023-02-19T15:56:48;12.50;99.90
44117;DHT22;29781;49.480;8.512;2023-02-19T15:59:16;12.40;99.90
44117;DHT22;29781;49.480;8.512;2023-02-19T16:01:45;12.50;99.90
44117;DHT22;29781;49.480;8.512;2023-02-19T16:04:12;12.40;99.90
44117;DHT22;29781;49.480;8.512;2023-02-19T16:06:51;12.30;99.90
44117;DHT22;29781;49.480;8.512;2023-02-19T16:09:21;12.30;99.90
44117;DHT22;29781;49.480;8.512;2023-02-19T16:11:51;12.30;99.90
44117;DHT22;29781;49.480;8.512;2023-02-19T16:14:21;12.20;99.90
44117;DHT22;29781;49.480;8.512;2023-02-19T16:16:47;12.10;99.90
44117;DHT22;29781;49.480;8.512;2023-02-19T16:19:18;11.90;99.90
44117;DHT22;29781;49.480;8.512;2023-02-19T16:21:44;12.00;99.90
44117;DHT22;29781;49.480;8.512;2023-02-19T16:24:13;12.00;99.90
44117;DHT22;29781;49.480;8.512;2023-02-19T16:26:41;12.00;99.90
44117;DHT22;29781;49.480;8.512;2023-02-19T16:29:49;12.00;99.90
44117;DHT22;29781;49.480;8.512;2023-02-19T16:32:02;11.90;99.90
44117;DHT22;29781;49.480;8.512;2023-02-19T16:34:39;11.90;99.90
44117;DHT22;29781;49.480;8.512;2023-02-19T16:39:52;12.10;99.90
44117;DHT22;29781;49.480;8.512;2023-02-19T16:42:21;12.00;99.90
44117;DHT22;29781;49.480;8.512;2023-02-19T16:44:47;11.90;99.90
44117;DHT22;29781;49.480;8.512;2023-02-19T16:47:13;11.90;99.90
44117;DHT22;29781;49.480;8.512;2023-02-19T16:49:39;11.80;99.90
44117;DHT22;29781;49.480;8.512;2023-02-19T16:52:06;11.80;99.90
44117;DHT22;29781;49.480;8.512;2023-02-19T16:54:33;11.90;99.90
44117;DHT22;29781;49.480;8.512;2023-02-19T16:56:58;11.90;99.90
44117;DHT22;29781;49.480;8.512;2023-02-19T16:59:24;11.70;99.90
44117;DHT22;29781;49.480;8.512;2023-02-19T17:01:49;11.70;99.90
44117;DHT22;29781;49.480;8.512;2023-02-19T17:04:15;11.70;99.90
44117;DHT22;29781;49.480;8.512;2023-02-19T17:06:40;11.70;99.90
44117;DHT22;29781;49.480;8.512;2023-02-19T17:09:06;11.70;99.90
44117;DHT22;29781;49.480;8.512;2023-02-19T17:11:32;11.50;99.90
44117;DHT22;29781;49.480;8.512;2023-02-19T17:13:58;11.50;99.90
44117;DHT22;29781;49.480;8.512;2023-02-19T17:16:25;11.50;99.90
44117;DHT22;29781;49.480;8.512;2023-02-19T17:18:55;11.40;99.90
44117;DHT22;29781;49.480;8.512;2023-02-19T17:21:24;11.50;99.90
44117;DHT22;29781;49.480;8.512;2023-02-19T17:23:49;11.70;99.90
44117;DHT22;29781;49.480;8.512;2023-02-19T17:26:16;11.60;99.90
44117;DHT22;29781;49.480;8.512;2023-02-19T17:28:41;11.60;99.90
44117;DHT22;29781;49.480;8.512;2023-02-19T17:31:07;11.60;99.90
44117;DHT22;29781;49.480;8.512;2023-02-19T17:33:33;11.50;99.90
44117;DHT22;29781;49.480;8.512;2023-02-19T17:35:58;11.40;99.90
44117;DHT22;29781;49.480;8.512;2023-02-19T17:38:24;11.50;99.90